createdAt,value
2017-07-30T00:00:10.391Z,0
2017-07-30T00:00:50.777Z,0
2017-07-30T00:01:31.220Z,0
2017-07-30T00:02:11.723Z,0
2017-07-30T00:02:52.207Z,0
2017-07-30T00:03:32.727Z,0
2017-07-30T00:04:13.248Z,0
2017-07-30T00:04:53.772Z,0
2017-07-30T00:05:34.265Z,0
2017-07-30T00:06:14.726Z,0
2017-07-30T00:06:55.222Z,0
2017-07-30T00:07:35.851Z,0
2017-07-30T00:08:16.340Z,0
2017-07-30T00:08:56.836Z,0
2017-07-30T00:09:37.376Z,0
2017-07-30T00:10:17.883Z,0
2017-07-30T00:10:58.468Z,0
2017-07-30T00:11:38.974Z,0
2017-07-30T00:12:19.484Z,0
2017-07-30T00:12:59.982Z,0
2017-07-30T00:13:40.503Z,0
2017-07-30T00:14:21.046Z,0
2017-07-30T00:15:01.560Z,0
2017-07-30T00:15:42.045Z,0
2017-07-30T00:16:22.571Z,0
2017-07-30T00:17:03.079Z,0
2017-07-30T00:17:43.560Z,0
2017-07-30T00:18:24.084Z,0
2017-07-30T00:19:04.555Z,0
2017-07-30T00:19:45.044Z,0
2017-07-30T00:20:25.550Z,0
2017-07-30T00:21:05.999Z,0
2017-07-30T00:21:46.498Z,0
2017-07-30T00:22:27.010Z,0
2017-07-30T00:23:07.490Z,0
2017-07-30T00:23:48.009Z,0
2017-07-30T00:24:28.489Z,0
2017-07-30T00:25:09.005Z,0
2017-07-30T00:25:49.513Z,0
2017-07-30T00:26:30.068Z,0
2017-07-30T00:27:10.517Z,0
2017-07-30T00:27:51.015Z,0
2017-07-30T00:28:31.482Z,0
2017-07-30T00:29:12.009Z,0
2017-07-30T00:29:52.536Z,0
2017-07-30T00:30:33.027Z,0
2017-07-30T00:31:13.493Z,0
2017-07-30T00:31:54.008Z,0
2017-07-30T00:32:34.476Z,0
2017-07-30T00:33:15.013Z,0
2017-07-30T00:33:55.485Z,0
2017-07-30T00:34:36.024Z,0
2017-07-30T00:35:16.566Z,0
2017-07-30T00:35:56.978Z,0
2017-07-30T00:36:37.484Z,0
2017-07-30T00:37:17.990Z,0
2017-07-30T00:37:58.507Z,0
2017-07-30T00:38:38.971Z,0
2017-07-30T00:39:19.461Z,0
2017-07-30T00:40:00.008Z,0
2017-07-30T00:40:40.445Z,0
2017-07-30T00:41:20.972Z,0
2017-07-30T00:42:01.470Z,0
2017-07-30T00:42:41.977Z,0
2017-07-30T00:43:22.497Z,0
2017-07-30T00:44:02.963Z,0
2017-07-30T00:44:43.485Z,0
2017-07-30T00:45:24.001Z,0
2017-07-30T00:46:04.522Z,0
2017-07-30T00:46:45.067Z,0
2017-07-30T00:47:25.612Z,0
2017-07-30T00:48:06.119Z,0
2017-07-30T00:48:46.583Z,0
2017-07-30T00:49:27.113Z,0
2017-07-30T00:50:07.586Z,0
2017-07-30T00:50:48.133Z,0
2017-07-30T00:51:28.606Z,0
2017-07-30T00:52:09.091Z,0
2017-07-30T00:52:49.605Z,0
2017-07-30T00:53:30.091Z,0
2017-07-30T00:54:10.638Z,0
2017-07-30T00:54:51.185Z,0
2017-07-30T00:55:31.695Z,0
2017-07-30T00:56:12.152Z,0
2017-07-30T00:56:52.674Z,0
2017-07-30T00:57:33.205Z,0
2017-07-30T00:58:13.689Z,0
2017-07-30T00:58:54.202Z,0
2017-07-30T00:59:34.699Z,0
2017-07-30T01:00:15.213Z,0
2017-07-30T01:00:55.686Z,0
2017-07-30T01:01:36.226Z,0
2017-07-30T01:02:16.689Z,0
2017-07-30T01:02:57.187Z,0
2017-07-30T01:03:37.679Z,0
2017-07-30T01:04:18.202Z,0
2017-07-30T01:04:58.699Z,0
2017-07-30T01:05:39.239Z,0
2017-07-30T01:06:19.745Z,0
2017-07-30T01:07:00.305Z,0
2017-07-30T01:07:40.787Z,0
2017-07-30T01:08:21.290Z,0
2017-07-30T01:09:01.717Z,0
2017-07-30T01:09:42.256Z,0
2017-07-30T01:10:22.747Z,0
2017-07-30T01:11:03.246Z,0
2017-07-30T01:11:43.773Z,0
2017-07-30T01:12:24.291Z,0
2017-07-30T01:13:04.810Z,0
2017-07-30T01:13:45.288Z,0
2017-07-30T01:14:25.828Z,0
2017-07-30T01:15:06.291Z,0
2017-07-30T01:15:46.837Z,0
2017-07-30T01:16:27.301Z,0
2017-07-30T01:17:07.774Z,0
2017-07-30T01:17:48.324Z,0
2017-07-30T01:18:28.788Z,0
2017-07-30T01:19:09.287Z,0
2017-07-30T01:19:49.802Z,0
2017-07-30T01:20:30.315Z,0
2017-07-30T01:21:10.852Z,0
2017-07-30T01:21:51.388Z,0
2017-07-30T01:22:31.866Z,0
2017-07-30T01:23:12.390Z,0
2017-07-30T01:23:52.873Z,0
2017-07-30T01:24:33.378Z,0
2017-07-30T01:25:13.849Z,0
2017-07-30T01:25:54.359Z,0
2017-07-30T01:26:34.892Z,0
2017-07-30T01:27:15.393Z,0
2017-07-30T01:27:55.935Z,0
2017-07-30T01:28:36.413Z,0
2017-07-30T01:29:16.944Z,0
2017-07-30T01:29:57.434Z,0
2017-07-30T01:30:37.890Z,0
2017-07-30T01:31:18.411Z,0
2017-07-30T01:31:58.891Z,0
2017-07-30T01:32:39.404Z,0
2017-07-30T01:33:19.918Z,0
2017-07-30T01:34:00.448Z,0
2017-07-30T01:34:40.954Z,0
2017-07-30T01:35:21.469Z,0
2017-07-30T01:36:01.961Z,0
2017-07-30T01:36:42.478Z,0
2017-07-30T01:37:22.950Z,0
2017-07-30T01:38:03.483Z,0
2017-07-30T01:38:43.948Z,0
2017-07-30T01:39:24.444Z,0
2017-07-30T01:40:04.946Z,0
2017-07-30T01:40:45.478Z,0
2017-07-30T01:41:25.964Z,0
2017-07-30T01:42:06.457Z,0
2017-07-30T01:42:46.954Z,0
2017-07-30T01:43:27.471Z,0
2017-07-30T01:44:07.954Z,0
2017-07-30T01:44:48.480Z,0
2017-07-30T01:45:28.950Z,0
2017-07-30T01:46:09.489Z,0
2017-07-30T01:46:49.974Z,0
2017-07-30T01:47:30.459Z,0
2017-07-30T01:48:10.969Z,0
2017-07-30T01:48:51.468Z,0
2017-07-30T01:49:31.972Z,0
2017-07-30T01:50:12.479Z,0
2017-07-30T01:50:52.974Z,0
2017-07-30T01:51:33.467Z,0
2017-07-30T01:52:13.983Z,0
2017-07-30T01:52:54.504Z,0
2017-07-30T01:53:35.053Z,0
2017-07-30T01:54:15.591Z,0
2017-07-30T01:54:56.886Z,0
2017-07-30T01:55:37.405Z,0
2017-07-30T01:56:17.859Z,0
2017-07-30T01:56:58.373Z,0
2017-07-30T01:57:38.891Z,0
2017-07-30T01:58:19.370Z,0
2017-07-30T01:58:59.871Z,0
2017-07-30T01:59:40.377Z,0
2017-07-30T02:00:20.883Z,0
2017-07-30T02:01:01.359Z,0
2017-07-30T02:01:41.865Z,0
2017-07-30T02:02:22.396Z,0
2017-07-30T02:03:02.874Z,0
2017-07-30T02:03:43.364Z,0
2017-07-30T02:04:23.885Z,0
2017-07-30T02:05:04.410Z,0
2017-07-30T02:05:44.906Z,0
2017-07-30T02:06:25.428Z,0
2017-07-30T02:07:05.960Z,0
2017-07-30T02:07:46.487Z,0
2017-07-30T02:08:26.961Z,0
2017-07-30T02:09:07.448Z,0
2017-07-30T02:09:47.935Z,0
2017-07-30T02:10:28.452Z,0
2017-07-30T02:11:08.946Z,0
2017-07-30T02:11:49.451Z,0
2017-07-30T02:12:29.959Z,0
2017-07-30T02:13:10.477Z,0
2017-07-30T02:13:50.975Z,0
2017-07-30T02:14:31.479Z,0
2017-07-30T02:15:11.974Z,0
2017-07-30T02:15:52.473Z,0
2017-07-30T02:16:32.991Z,0
2017-07-30T02:17:13.489Z,0
2017-07-30T02:17:53.984Z,0
2017-07-30T02:18:34.485Z,0
2017-07-30T02:19:15.043Z,0
2017-07-30T02:19:55.509Z,0
2017-07-30T02:20:36.005Z,0
2017-07-30T02:21:16.482Z,0
2017-07-30T02:21:57.063Z,0
2017-07-30T02:22:37.499Z,0
2017-07-30T02:23:17.992Z,0
2017-07-30T02:23:58.509Z,0
2017-07-30T02:24:39.039Z,0
2017-07-30T02:25:19.510Z,0
2017-07-30T02:26:00.006Z,0
2017-07-30T02:26:40.529Z,0
2017-07-30T02:27:21.028Z,0
2017-07-30T02:28:01.506Z,0
2017-07-30T02:28:41.992Z,0
2017-07-30T02:29:22.508Z,0
2017-07-30T02:30:03.031Z,0
2017-07-30T02:30:43.525Z,0
2017-07-30T02:31:24.057Z,0
2017-07-30T02:32:04.531Z,0
2017-07-30T02:32:45.041Z,0
2017-07-30T02:33:25.561Z,0
2017-07-30T02:34:06.034Z,0
2017-07-30T02:34:46.524Z,0
2017-07-30T02:35:27.008Z,0
2017-07-30T02:36:07.511Z,0
2017-07-30T02:36:48.030Z,0
2017-07-30T02:37:28.555Z,0
2017-07-30T02:38:08.981Z,0
2017-07-30T02:38:49.474Z,0
2017-07-30T02:39:29.964Z,0
2017-07-30T02:40:10.462Z,0
2017-07-30T02:40:50.967Z,0
2017-07-30T02:41:31.469Z,0
2017-07-30T02:42:11.926Z,0
2017-07-30T02:42:52.460Z,0
2017-07-30T02:43:33.000Z,0
2017-07-30T02:44:13.473Z,0
2017-07-30T02:44:54.071Z,0
2017-07-30T02:45:34.495Z,0
2017-07-30T02:46:15.005Z,0
2017-07-30T02:46:55.528Z,0
2017-07-30T02:47:36.080Z,0
2017-07-30T02:48:16.582Z,0
2017-07-30T02:48:57.060Z,0
2017-07-30T02:49:37.567Z,0
2017-07-30T02:50:18.043Z,0
2017-07-30T02:50:58.506Z,0
2017-07-30T02:51:39.024Z,0
2017-07-30T02:52:19.517Z,0
2017-07-30T02:52:59.945Z,0
2017-07-30T02:53:40.484Z,0
2017-07-30T02:54:20.953Z,0
2017-07-30T02:55:01.438Z,0
2017-07-30T02:55:41.920Z,0
2017-07-30T02:56:22.409Z,0
2017-07-30T02:57:02.934Z,0
2017-07-30T02:57:43.376Z,0
2017-07-30T02:58:23.875Z,0
2017-07-30T02:59:04.345Z,0
2017-07-30T02:59:44.837Z,0
2017-07-30T03:00:25.369Z,0
2017-07-30T03:01:05.827Z,0
2017-07-30T03:01:46.286Z,0
2017-07-30T03:04:04.712Z,0
2017-07-30T03:04:45.280Z,0
2017-07-30T03:07:13.813Z,0
2017-07-30T03:07:54.318Z,0
2017-07-30T03:08:34.839Z,0
2017-07-30T03:09:15.335Z,0
2017-07-30T03:09:55.868Z,0
2017-07-30T03:10:36.376Z,0
2017-07-30T03:11:16.885Z,0
2017-07-30T03:11:57.380Z,0
2017-07-30T03:12:37.875Z,0
2017-07-30T03:13:18.371Z,0
2017-07-30T03:13:58.868Z,0
2017-07-30T03:14:39.375Z,0
2017-07-30T03:15:19.884Z,0
2017-07-30T03:16:00.402Z,0
2017-07-30T03:16:40.888Z,0
2017-07-30T03:17:21.401Z,0
2017-07-30T03:18:01.913Z,0
2017-07-30T03:18:42.398Z,0
2017-07-30T03:19:22.946Z,0
2017-07-30T03:20:03.431Z,0
2017-07-30T03:20:43.941Z,0
2017-07-30T03:21:24.453Z,0
2017-07-30T03:22:04.944Z,0
2017-07-30T03:22:45.466Z,0
2017-07-30T03:23:25.966Z,0
2017-07-30T03:24:06.462Z,0
2017-07-30T03:24:47.005Z,0
2017-07-30T03:25:27.515Z,0
2017-07-30T03:26:08.005Z,0
2017-07-30T03:26:48.456Z,0
2017-07-30T03:27:28.946Z,0
2017-07-30T03:28:09.472Z,0
2017-07-30T03:28:49.936Z,0
2017-07-30T03:29:30.460Z,0
2017-07-30T03:30:11.001Z,0
2017-07-30T03:30:51.463Z,0
2017-07-30T03:31:32.026Z,0
2017-07-30T03:32:12.529Z,0
2017-07-30T03:32:53.017Z,0
2017-07-30T03:33:33.509Z,0
2017-07-30T03:34:14.015Z,0
2017-07-30T03:34:54.539Z,0
2017-07-30T03:35:35.056Z,0
2017-07-30T03:36:15.564Z,0
2017-07-30T03:36:56.020Z,0
2017-07-30T03:37:36.554Z,0
2017-07-30T03:38:17.055Z,0
2017-07-30T03:38:57.557Z,0
2017-07-30T03:39:38.096Z,0
2017-07-30T03:40:18.582Z,0
2017-07-30T03:40:59.097Z,0
2017-07-30T03:41:39.594Z,0
2017-07-30T03:42:20.110Z,0
2017-07-30T03:43:00.597Z,0
2017-07-30T03:43:41.108Z,0
2017-07-30T03:44:21.636Z,0
2017-07-30T03:45:02.101Z,0
2017-07-30T03:45:42.628Z,0
2017-07-30T03:46:23.146Z,0
2017-07-30T03:47:03.654Z,0
2017-07-30T03:47:44.165Z,0
2017-07-30T03:48:24.674Z,0
2017-07-30T03:50:58.267Z,5
2017-07-30T03:51:38.775Z,5
2017-07-30T03:52:19.296Z,5
2017-07-30T03:52:59.822Z,5
2017-07-30T03:53:40.324Z,5
2017-07-30T03:54:20.803Z,5
2017-07-30T03:55:01.293Z,5
2017-07-30T03:55:41.806Z,5
2017-07-30T03:56:22.257Z,5
2017-07-30T03:57:02.793Z,5
2017-07-30T03:57:43.290Z,5
2017-07-30T03:58:23.796Z,10
2017-07-30T03:59:04.247Z,10
2017-07-30T03:59:44.803Z,10
2017-07-30T04:00:25.331Z,10
2017-07-30T04:01:05.819Z,10
2017-07-30T04:01:46.319Z,10
2017-07-30T04:02:26.787Z,10
2017-07-30T04:03:07.279Z,10
2017-07-30T04:03:47.807Z,10
2017-07-30T04:04:28.280Z,10
2017-07-30T04:05:08.792Z,10
2017-07-30T04:05:49.262Z,15
2017-07-30T04:06:29.761Z,15
2017-07-30T04:07:10.360Z,15
2017-07-30T04:07:50.812Z,15
2017-07-30T04:08:31.262Z,15
2017-07-30T04:09:11.778Z,15
2017-07-30T04:09:52.266Z,20
2017-07-30T04:10:32.791Z,20
2017-07-30T04:11:13.287Z,20
2017-07-30T04:11:53.738Z,20
2017-07-30T04:12:34.247Z,25
2017-07-30T04:13:14.769Z,25
2017-07-30T04:13:55.271Z,25
2017-07-30T04:14:35.761Z,30
2017-07-30T04:15:16.241Z,30
2017-07-30T04:15:56.725Z,30
2017-07-30T04:16:37.228Z,35
2017-07-30T04:17:17.717Z,35
2017-07-30T04:17:58.240Z,35
2017-07-30T04:18:38.720Z,35
2017-07-30T04:19:19.274Z,40
2017-07-30T04:19:59.757Z,40
2017-07-30T04:20:40.241Z,40
2017-07-30T04:21:20.717Z,40
2017-07-30T04:22:01.239Z,40
2017-07-30T04:22:41.724Z,45
2017-07-30T04:23:22.251Z,45
2017-07-30T04:24:02.747Z,45
2017-07-30T04:24:43.230Z,45
2017-07-30T04:25:23.702Z,45
2017-07-30T04:26:04.215Z,45
2017-07-30T04:26:44.711Z,45
2017-07-30T04:27:25.225Z,45
2017-07-30T04:28:05.771Z,45
2017-07-30T04:28:46.253Z,50
2017-07-30T04:29:26.714Z,50
2017-07-30T04:30:07.305Z,50
2017-07-30T04:30:47.815Z,50
2017-07-30T04:31:28.316Z,50
2017-07-30T04:32:08.797Z,50
2017-07-30T04:32:49.275Z,50
2017-07-30T04:33:29.777Z,50
2017-07-30T04:34:10.267Z,55
2017-07-30T04:34:50.802Z,55
2017-07-30T04:35:31.281Z,55
2017-07-30T04:36:11.779Z,55
2017-07-30T04:36:52.328Z,60
2017-07-30T04:37:32.801Z,60
2017-07-30T04:38:13.318Z,60
2017-07-30T04:38:53.809Z,60
2017-07-30T04:39:34.262Z,60
2017-07-30T04:40:14.741Z,65
2017-07-30T04:40:55.270Z,60
2017-07-30T04:41:35.738Z,60
2017-07-30T04:42:16.233Z,60
2017-07-30T04:42:56.717Z,65
2017-07-30T04:43:37.189Z,70
2017-07-30T04:44:17.684Z,65
2017-07-30T04:44:58.190Z,65
2017-07-30T04:45:38.677Z,65
2017-07-30T04:46:19.236Z,65
2017-07-30T04:46:59.739Z,65
2017-07-30T04:47:40.239Z,70
2017-07-30T04:48:20.743Z,70
2017-07-30T04:49:01.241Z,70
2017-07-30T04:49:41.697Z,70
2017-07-30T04:50:22.234Z,70
2017-07-30T04:51:02.794Z,70
2017-07-30T04:51:43.315Z,70
2017-07-30T04:52:23.736Z,70
2017-07-30T04:53:04.375Z,70
2017-07-30T04:53:44.860Z,75
2017-07-30T04:54:25.334Z,85
2017-07-30T04:55:05.815Z,80
2017-07-30T04:55:46.309Z,75
2017-07-30T04:56:26.811Z,75
2017-07-30T04:57:07.391Z,75
2017-07-30T04:57:47.848Z,70
2017-07-30T04:58:28.364Z,75
2017-07-30T04:59:08.867Z,75
2017-07-30T04:59:49.370Z,80
2017-07-30T05:00:29.886Z,80
2017-07-30T05:01:10.546Z,80
2017-07-30T05:01:50.929Z,85
2017-07-30T05:02:31.417Z,85
2017-07-30T05:03:11.976Z,90
2017-07-30T05:03:52.423Z,100
2017-07-30T05:04:32.900Z,105
2017-07-30T05:05:13.409Z,100
2017-07-30T05:05:53.890Z,90
2017-07-30T05:06:34.453Z,90
2017-07-30T05:07:14.890Z,90
2017-07-30T05:07:55.403Z,95
2017-07-30T05:08:35.909Z,110
2017-07-30T05:09:16.466Z,110
2017-07-30T05:09:56.958Z,100
2017-07-30T05:10:37.410Z,90
2017-07-30T05:11:17.920Z,95
2017-07-30T05:11:58.412Z,95
2017-07-30T05:12:38.914Z,95
2017-07-30T05:13:19.468Z,100
2017-07-30T05:13:59.919Z,110
2017-07-30T05:14:40.421Z,100
2017-07-30T05:15:20.884Z,100
2017-07-30T05:16:01.400Z,100
2017-07-30T05:16:41.865Z,100
2017-07-30T05:17:22.372Z,105
2017-07-30T05:18:02.880Z,100
2017-07-30T05:18:43.402Z,100
2017-07-30T05:19:23.899Z,100
2017-07-30T05:20:04.492Z,100
2017-07-30T05:20:44.871Z,105
2017-07-30T05:21:25.390Z,105
2017-07-30T05:22:05.872Z,105
2017-07-30T05:22:46.401Z,105
2017-07-30T05:23:26.908Z,105
2017-07-30T05:24:07.427Z,105
2017-07-30T05:24:47.937Z,105
2017-07-30T05:25:28.455Z,105
2017-07-30T05:26:08.947Z,105
2017-07-30T05:26:49.438Z,110
2017-07-30T05:27:29.952Z,110
2017-07-30T05:28:10.434Z,110
2017-07-30T05:28:50.940Z,110
2017-07-30T05:29:31.443Z,115
2017-07-30T05:30:11.997Z,115
2017-07-30T05:30:52.447Z,115
2017-07-30T05:31:32.966Z,120
2017-07-30T05:32:13.458Z,120
2017-07-30T05:32:53.945Z,120
2017-07-30T05:33:34.465Z,120
2017-07-30T05:34:15.027Z,130
2017-07-30T05:34:55.497Z,125
2017-07-30T05:35:36.000Z,125
2017-07-30T05:36:16.529Z,125
2017-07-30T05:36:57.005Z,125
2017-07-30T05:37:37.520Z,125
2017-07-30T05:38:18.044Z,125
2017-07-30T05:38:58.533Z,130
2017-07-30T05:39:39.050Z,130
2017-07-30T05:40:19.542Z,130
2017-07-30T05:41:00.044Z,130
2017-07-30T05:41:40.516Z,130
2017-07-30T05:42:21.050Z,130
2017-07-30T05:43:01.535Z,135
2017-07-30T05:43:42.021Z,135
2017-07-30T05:44:22.472Z,135
2017-07-30T05:45:02.988Z,140
2017-07-30T05:45:43.433Z,140
2017-07-30T05:46:23.947Z,145
2017-07-30T05:47:04.431Z,150
2017-07-30T05:47:44.944Z,150
2017-07-30T05:48:25.470Z,150
2017-07-30T05:49:05.939Z,155
2017-07-30T05:49:46.478Z,180
2017-07-30T05:50:26.937Z,190
2017-07-30T05:51:07.486Z,210
2017-07-30T05:51:47.933Z,210
2017-07-30T05:52:28.506Z,245
2017-07-30T05:53:08.968Z,270
2017-07-30T05:53:49.449Z,285
2017-07-30T05:54:29.956Z,320
2017-07-30T05:55:10.623Z,320
2017-07-30T05:55:51.125Z,330
2017-07-30T05:56:31.635Z,335
2017-07-30T05:57:12.137Z,335
2017-07-30T05:57:52.654Z,335
2017-07-30T05:58:33.174Z,330
2017-07-30T05:59:13.690Z,325
2017-07-30T05:59:54.227Z,330
2017-07-30T06:00:34.705Z,320
2017-07-30T06:01:15.199Z,315
2017-07-30T06:01:55.705Z,315
2017-07-30T06:02:36.233Z,320
2017-07-30T06:03:16.716Z,325
2017-07-30T06:03:57.285Z,325
2017-07-30T06:04:37.734Z,320
2017-07-30T06:05:18.221Z,330
2017-07-30T06:05:58.741Z,345
2017-07-30T06:06:39.274Z,340
2017-07-30T06:07:19.805Z,345
2017-07-30T06:08:00.271Z,340
2017-07-30T06:08:40.793Z,340
2017-07-30T06:09:21.321Z,350
2017-07-30T06:10:01.806Z,350
2017-07-30T06:10:42.326Z,355
2017-07-30T06:11:22.815Z,365
2017-07-30T06:12:03.319Z,365
2017-07-30T06:12:43.828Z,365
2017-07-30T06:13:24.332Z,370
2017-07-30T06:14:04.870Z,365
2017-07-30T06:14:45.361Z,360
2017-07-30T06:15:25.904Z,355
2017-07-30T06:16:06.426Z,355
2017-07-30T06:16:46.991Z,355
2017-07-30T06:17:27.452Z,355
2017-07-30T06:18:07.965Z,350
2017-07-30T06:18:48.467Z,345
2017-07-30T06:19:28.979Z,340
2017-07-30T06:20:09.569Z,330
2017-07-30T06:20:50.004Z,320
2017-07-30T06:21:30.515Z,320
2017-07-30T06:22:11.022Z,315
2017-07-30T06:22:51.537Z,310
2017-07-30T06:23:32.079Z,285
2017-07-30T06:24:12.652Z,295
2017-07-30T06:24:53.119Z,300
2017-07-30T06:25:33.638Z,300
2017-07-30T06:26:14.135Z,280
2017-07-30T06:26:54.630Z,260
2017-07-30T06:27:35.143Z,250
2017-07-30T06:28:15.632Z,255
2017-07-30T06:28:56.133Z,255
2017-07-30T06:29:36.677Z,270
2017-07-30T06:30:17.173Z,270
2017-07-30T06:30:57.691Z,275
2017-07-30T06:31:38.197Z,265
2017-07-30T06:32:18.705Z,275
2017-07-30T06:32:59.207Z,265
2017-07-30T06:33:39.711Z,265
2017-07-30T06:34:20.219Z,265
2017-07-30T06:35:00.738Z,255
2017-07-30T06:35:41.245Z,270
2017-07-30T06:36:21.760Z,275
2017-07-30T06:37:02.288Z,270
2017-07-30T06:37:42.809Z,255
2017-07-30T06:38:23.322Z,245
2017-07-30T06:39:03.824Z,245
2017-07-30T06:39:44.345Z,250
2017-07-30T06:40:24.834Z,255
2017-07-30T06:41:05.548Z,260
2017-07-30T06:41:46.046Z,265
2017-07-30T06:42:26.493Z,270
2017-07-30T06:43:07.030Z,270
2017-07-30T06:43:47.512Z,270
2017-07-30T06:44:27.974Z,265
2017-07-30T06:45:08.558Z,260
2017-07-30T06:45:49.083Z,285
2017-07-30T06:46:29.593Z,290
2017-07-30T06:47:10.095Z,290
2017-07-30T06:47:50.641Z,285
2017-07-30T06:48:31.096Z,285
2017-07-30T06:49:11.685Z,290
2017-07-30T06:49:52.380Z,295
2017-07-30T06:50:32.849Z,290
2017-07-30T06:51:13.373Z,280
2017-07-30T06:51:53.844Z,280
2017-07-30T06:52:34.367Z,280
2017-07-30T06:53:14.845Z,305
2017-07-30T06:53:55.412Z,320
2017-07-30T06:54:35.900Z,335
2017-07-30T06:55:16.395Z,325
2017-07-30T06:55:56.926Z,315
2017-07-30T06:56:37.381Z,275
2017-07-30T06:57:18.050Z,265
2017-07-30T06:57:58.468Z,265
2017-07-30T06:58:39.000Z,245
2017-07-30T06:59:19.476Z,240
2017-07-30T07:00:00.029Z,250
2017-07-30T07:00:40.513Z,250
2017-07-30T07:01:20.980Z,230
2017-07-30T07:02:01.494Z,230
2017-07-30T07:02:41.984Z,220
2017-07-30T07:03:22.505Z,225
2017-07-30T07:04:03.010Z,215
2017-07-30T07:04:43.550Z,215
2017-07-30T07:05:24.164Z,230
2017-07-30T07:06:04.606Z,220
2017-07-30T07:06:45.177Z,230
2017-07-30T07:07:25.593Z,225
2017-07-30T07:08:06.093Z,205
2017-07-30T07:08:46.620Z,220
2017-07-30T07:09:27.145Z,245
2017-07-30T07:10:07.618Z,235
2017-07-30T07:10:48.127Z,230
2017-07-30T07:11:28.630Z,245
2017-07-30T07:12:09.093Z,235
2017-07-30T07:12:49.702Z,250
2017-07-30T07:13:30.169Z,245
2017-07-30T07:14:10.617Z,255
2017-07-30T07:14:51.121Z,250
2017-07-30T07:15:31.618Z,250
2017-07-30T07:16:12.146Z,245
2017-07-30T07:16:52.620Z,250
2017-07-30T07:17:33.120Z,255
2017-07-30T07:18:13.623Z,245
2017-07-30T07:18:54.131Z,255
2017-07-30T07:19:34.650Z,240
2017-07-30T07:20:15.215Z,250
2017-07-30T07:20:55.682Z,240
2017-07-30T07:21:36.151Z,245
2017-07-30T07:22:16.646Z,250
2017-07-30T07:22:57.150Z,250
2017-07-30T07:23:37.648Z,250
2017-07-30T07:24:18.153Z,250
2017-07-30T07:24:58.643Z,255
2017-07-30T07:25:39.183Z,255
2017-07-30T07:26:19.631Z,250
2017-07-30T07:27:00.151Z,245
2017-07-30T07:27:40.660Z,245
2017-07-30T07:28:21.136Z,245
2017-07-30T07:29:01.646Z,245
2017-07-30T07:29:42.092Z,230
2017-07-30T07:30:22.617Z,245
2017-07-30T07:31:03.141Z,245
2017-07-30T07:31:43.651Z,245
2017-07-30T07:32:24.128Z,220
2017-07-30T07:33:04.658Z,245
2017-07-30T07:33:45.115Z,240
2017-07-30T07:34:25.656Z,240
2017-07-30T07:35:06.168Z,240
2017-07-30T07:35:46.648Z,240
2017-07-30T07:36:27.145Z,235
2017-07-30T07:37:07.656Z,235
2017-07-30T07:37:48.186Z,235
2017-07-30T07:38:28.710Z,230
2017-07-30T07:39:09.217Z,235
2017-07-30T07:39:49.699Z,235
2017-07-30T07:40:30.181Z,230
2017-07-30T07:41:10.740Z,235
2017-07-30T07:41:51.205Z,230
2017-07-30T07:42:31.691Z,230
2017-07-30T07:43:12.235Z,230
2017-07-30T07:43:52.751Z,230
2017-07-30T07:44:33.268Z,230
2017-07-30T07:45:13.734Z,230
2017-07-30T07:45:54.314Z,230
2017-07-30T07:46:34.777Z,225
2017-07-30T07:47:15.291Z,225
2017-07-30T07:47:55.813Z,225
2017-07-30T07:48:36.423Z,225
2017-07-30T07:49:18.362Z,225
2017-07-30T07:49:58.856Z,225
2017-07-30T07:50:39.376Z,225
2017-07-30T07:51:19.868Z,225
2017-07-30T07:52:00.481Z,220
2017-07-30T07:52:41.251Z,220
2017-07-30T07:53:21.805Z,220
2017-07-30T07:54:02.289Z,220
2017-07-30T07:54:42.796Z,220
2017-07-30T07:55:23.323Z,215
2017-07-30T07:56:03.801Z,215
2017-07-30T07:56:44.329Z,215
2017-07-30T07:57:24.804Z,210
2017-07-30T07:58:05.490Z,210
2017-07-30T07:58:46.065Z,210
2017-07-30T07:59:26.549Z,205
2017-07-30T08:00:07.085Z,205
2017-07-30T08:00:47.528Z,205
2017-07-30T08:01:28.094Z,210
2017-07-30T08:02:08.534Z,205
2017-07-30T08:02:49.202Z,200
2017-07-30T08:03:29.747Z,210
2017-07-30T08:04:10.690Z,200
2017-07-30T08:04:50.767Z,200
2017-07-30T08:05:31.365Z,200
2017-07-30T08:06:11.847Z,195
2017-07-30T08:06:52.355Z,195
2017-07-30T08:07:33.169Z,195
2017-07-30T08:08:14.236Z,195
2017-07-30T08:08:54.296Z,190
2017-07-30T08:09:34.816Z,190
2017-07-30T08:10:15.276Z,190
2017-07-30T08:10:55.821Z,190
2017-07-30T08:11:36.304Z,190
2017-07-30T08:12:17.011Z,185
2017-07-30T08:12:57.444Z,185
2017-07-30T08:13:38.022Z,185
2017-07-30T08:14:18.742Z,185
2017-07-30T08:14:59.192Z,185
2017-07-30T08:15:39.647Z,185
2017-07-30T08:16:20.247Z,185
2017-07-30T08:17:00.724Z,185
2017-07-30T08:17:41.358Z,185
2017-07-30T08:18:21.853Z,180
2017-07-30T08:19:02.405Z,180
2017-07-30T08:19:42.905Z,180
2017-07-30T08:20:23.341Z,175
2017-07-30T08:21:03.928Z,175
2017-07-30T08:21:44.457Z,170
2017-07-30T08:22:24.936Z,165
2017-07-30T08:23:05.518Z,160
2017-07-30T08:23:46.107Z,155
2017-07-30T08:24:26.971Z,155
2017-07-30T08:25:07.973Z,150
2017-07-30T08:25:48.490Z,150
2017-07-30T08:26:29.071Z,150
2017-07-30T08:27:09.663Z,150
2017-07-30T08:27:50.172Z,150
2017-07-30T08:28:30.755Z,150
2017-07-30T08:29:11.276Z,150
2017-07-30T08:29:51.762Z,145
2017-07-30T08:30:32.340Z,145
2017-07-30T08:31:12.795Z,145
2017-07-30T08:31:53.858Z,145
2017-07-30T08:32:34.340Z,145
2017-07-30T08:33:14.902Z,145
2017-07-30T08:33:55.406Z,145
2017-07-30T08:34:35.894Z,145
2017-07-30T08:35:16.517Z,145
2017-07-30T08:35:57.199Z,145
2017-07-30T08:36:37.766Z,145
2017-07-30T08:37:18.408Z,145
2017-07-30T08:37:58.947Z,140
2017-07-30T08:38:39.375Z,140
2017-07-30T08:39:20.019Z,140
2017-07-30T08:40:00.532Z,140
2017-07-30T08:40:41.135Z,140
2017-07-30T08:41:21.532Z,140
2017-07-30T08:42:02.303Z,140
2017-07-30T08:42:42.911Z,140
2017-07-30T08:43:23.394Z,135
2017-07-30T08:44:03.937Z,135
2017-07-30T08:44:44.685Z,135
2017-07-30T08:47:08.477Z,135
2017-07-30T08:47:49.012Z,140
2017-07-30T08:48:29.649Z,140
2017-07-30T08:49:10.113Z,150
2017-07-30T08:49:50.654Z,120
2017-07-30T08:50:31.139Z,130
2017-07-30T08:51:12.549Z,135
2017-07-30T08:51:53.031Z,130
2017-07-30T08:52:33.952Z,135
2017-07-30T08:53:14.424Z,135
2017-07-30T08:53:55.003Z,135
2017-07-30T08:54:35.435Z,80
2017-07-30T08:55:16.010Z,135
2017-07-30T08:55:56.621Z,135
2017-07-30T08:56:37.205Z,135
2017-07-30T08:57:17.713Z,135
2017-07-30T08:58:01.246Z,145
2017-07-30T08:58:41.719Z,150
2017-07-30T08:59:22.284Z,150
2017-07-30T09:00:02.810Z,150
2017-07-30T09:00:43.409Z,150
2017-07-30T09:01:23.899Z,150
2017-07-30T09:02:04.610Z,145
2017-07-30T09:02:46.704Z,140
2017-07-30T09:03:29.151Z,135
2017-07-30T09:04:09.638Z,140
2017-07-30T09:04:50.188Z,130
2017-07-30T09:05:31.045Z,135
2017-07-30T09:06:11.553Z,140
2017-07-30T09:06:53.679Z,145
2017-07-30T09:07:34.193Z,145
2017-07-30T09:08:14.689Z,140
2017-07-30T09:08:55.235Z,135
2017-07-30T09:09:35.843Z,130
2017-07-30T09:10:18.215Z,130
2017-07-30T09:10:58.841Z,130
2017-07-30T09:11:39.461Z,130
2017-07-30T09:12:20.094Z,130
2017-07-30T09:13:00.550Z,130
2017-07-30T09:13:40.978Z,130
2017-07-30T09:14:21.637Z,130
2017-07-30T09:15:02.305Z,130
2017-07-30T09:15:42.877Z,125
2017-07-30T09:16:23.611Z,130
2017-07-30T09:17:07.040Z,130
2017-07-30T09:17:49.352Z,130
2017-07-30T09:18:32.112Z,130
2017-07-30T09:19:12.562Z,130
2017-07-30T09:19:53.036Z,125
2017-07-30T09:20:33.990Z,130
2017-07-30T09:21:16.054Z,130
2017-07-30T09:21:56.655Z,130
2017-07-30T09:22:39.263Z,140
2017-07-30T09:23:20.289Z,145
2017-07-30T09:24:07.717Z,150
2017-07-30T09:24:48.542Z,120
2017-07-30T09:25:31.668Z,145
2017-07-30T09:26:12.336Z,160
2017-07-30T09:26:54.998Z,155
2017-07-30T09:27:35.397Z,165
2017-07-30T09:28:15.887Z,160
2017-07-30T09:28:56.496Z,155
2017-07-30T09:29:37.123Z,160
2017-07-30T09:30:17.640Z,155
2017-07-30T09:30:58.118Z,145
2017-07-30T09:31:38.837Z,140
2017-07-30T09:32:19.614Z,140
2017-07-30T09:32:59.957Z,140
2017-07-30T09:33:40.501Z,155
2017-07-30T09:34:21.560Z,150
2017-07-30T09:35:02.048Z,160
2017-07-30T09:35:42.655Z,165
2017-07-30T09:36:26.212Z,150
2017-07-30T09:37:06.923Z,165
2017-07-30T09:37:47.615Z,160
2017-07-30T09:38:28.317Z,155
2017-07-30T09:39:08.815Z,145
2017-07-30T09:39:49.355Z,140
2017-07-30T09:40:31.542Z,135
2017-07-30T09:41:12.196Z,135
2017-07-30T09:41:52.699Z,135
2017-07-30T09:42:33.402Z,135
2017-07-30T09:43:14.002Z,140
2017-07-30T09:43:54.713Z,140